Time;durP1;ratioP1;P1;durP2;ratioP2;P2;SDS_P1;SDS_P2;PMS_P1;PMS_P2;Temp;Humidity;BMP_temperature;BMP_pressure;BME280_temperature;BME280_humidity;BME280_pressure;Samples;Min_cycle;Max_cycle;Signal;HPM_P1;HPM_P2
2021/11/24 15:13:21;;;;;;;14.02;2.78;;;27.10;47.70;;;;;;5003065;27;2635416;-71
2021/11/24 15:15:54;;;;;;;8.63;1.85;;;27.00;49.00;;;;;;5089129;28;20036;-70
2021/11/24 15:18:25;;;;;;;7.10;2.05;;;27.00;48.00;;;;;;5093044;28;20085;-71
2021/11/24 15:21:00;;;;;;;14.23;8.68;;;27.00;47.90;;;;;;5090244;28;20367;-71
2021/11/24 15:23:27;;;;;;;12.00;5.63;;;27.10;48.20;;;;;;5087631;28;20127;-70
2021/11/24 15:26:01;;;;;;;28.42;5.10;;;27.10;47.60;;;;;;5093859;28;20772;-72
2021/11/24 15:28:32;;;;;;;37.25;4.95;;;27.20;48.30;;;;;;5094195;28;20024;-72
2021/11/24 15:31:11;;;;;;;38.42;9.35;;;27.20;48.70;;;;;;5090135;28;20119;-72
2021/11/24 15:33:46;;;;;;;26.45;8.40;;;27.30;48.80;;;;;;5089330;28;20128;-71
2021/11/24 15:36:32;;;;;;;16.52;4.03;;;27.40;49.00;;;;;;5091854;28;20032;-71
2021/11/24 15:38:59;;;;;;;11.68;3.22;;;27.50;49.00;;;;;;5088698;28;20044;-73
2021/11/24 15:41:30;;;;;;;14.82;4.07;;;27.50;48.30;;;;;;5093201;28;20556;-73
2021/11/24 15:43:57;;;;;;;15.05;3.08;;;27.50;48.40;;;;;;5096491;28;20032;-73
2021/11/24 15:46:25;;;;;;;19.55;3.20;;;27.50;48.60;;;;;;5079834;28;20027;-74
2021/11/24 15:48:51;;;;;;;8.82;2.30;;;27.40;48.10;;;;;;5082556;28;20119;-72
2021/11/24 15:51:20;;;;;;;9.48;3.72;;;27.40;47.90;;;;;;5079769;28;20094;-73
2021/11/24 15:53:48;;;;;;;11.55;2.25;;;27.40;47.60;;;;;;5088653;28;20046;-72
2021/11/24 15:56:23;;;;;;;8.80;2.80;;;27.40;47.80;;;;;;5094527;28;20028;-72
2021/11/24 15:58:56;;;;;;;;;;;27.40;47.60;;;;;;5094485;28;20416;-74
2021/11/24 16:01:24;;;;;;;14.60;2.38;;;27.30;47.30;;;;;;5089941;28;19943;-73
2021/11/24 16:03:50;;;;;;;17.15;3.13;;;27.30;47.80;;;;;;5095076;28;20463;-72
2021/11/24 16:06:17;;;;;;;5.30;1.80;;;27.20;47.40;;;;;;5094050;28;20131;-72
2021/11/24 16:08:45;;;;;;;9.95;2.75;;;27.20;47.50;;;;;;5088946;28;20111;-71
2021/11/24 16:11:14;;;;;;;6.75;2.10;;;27.10;47.60;;;;;;5093698;28;20068;-71
2021/11/24 16:13:41;;;;;;;10.65;2.35;;;27.10;47.10;;;;;;5114676;28;20038;-70
2021/11/24 16:16:09;;;;;;;10.02;2.40;;;27.00;47.40;;;;;;5111925;28;20511;-71
2021/11/24 16:18:36;;;;;;;6.95;1.75;;;27.00;47.20;;;;;;5112495;28;20016;-71
2021/11/24 16:21:04;;;;;;;7.40;1.80;;;27.00;47.20;;;;;;5109743;28;20020;-72
2021/11/24 16:23:30;;;;;;;5.65;1.67;;;26.90;47.20;;;;;;5084078;28;20016;-73
2021/11/24 16:25:57;;;;;;;4.75;1.65;;;26.90;47.10;;;;;;5078140;28;20481;-72
2021/11/24 16:28:23;;;;;;;8.90;2.10;;;26.80;46.90;;;;;;5103272;28;20024;-72
2021/11/24 16:30:50;;;;;;;7.40;2.35;;;26.80;46.90;;;;;;5096232;28;20030;-74
2021/11/24 16:33:17;;;;;;;8.30;1.98;;;26.80;47.20;;;;;;5098189;28;20109;-73
2021/11/24 16:35:43;;;;;;;7.15;2.28;;;26.70;47.20;;;;;;5097237;28;20470;-70
2021/11/24 16:38:11;;;;;;;7.60;2.35;;;26.70;47.20;;;;;;5082943;28;20028;-70
2021/11/24 16:40:38;;;;;;;15.60;3.38;;;26.70;47.10;;;;;;5097488;28;20019;-71
2021/11/24 16:43:04;;;;;;;7.75;1.90;;;26.60;47.00;;;;;;5099854;28;20041;-71
2021/11/24 16:45:31;;;;;;;9.70;2.47;;;26.60;46.90;;;;;;5101315;28;20019;-72
2021/11/24 16:47:58;;;;;;;5.40;2.08;;;26.60;46.70;;;;;;5078692;28;20031;-72
2021/11/24 16:50:24;;;;;;;9.73;1.95;;;26.60;46.60;;;;;;5072666;28;20028;-72
2021/11/24 16:52:51;;;;;;;10.40;1.80;;;26.50;46.70;;;;;;5086429;28;20044;-77
2021/11/24 16:55:18;;;;;;;7.40;1.90;;;26.50;46.70;;;;;;5052816;28;20024;-72
2021/11/24 16:57:45;;;;;;;8.77;1.80;;;26.50;46.40;;;;;;5084196;28;20038;-72
2021/11/24 17:00:15;;;;;;;6.68;1.60;;;26.40;45.90;;;;;;5085160;28;20690;-73
2021/11/24 17:02:42;;;;;;;9.68;2.28;;;26.40;45.70;;;;;;5086923;28;20103;-72
2021/11/24 17:05:10;;;;;;;10.68;2.00;;;26.30;45.50;;;;;;5085599;28;20146;-72
2021/11/24 17:07:39;;;;;;;9.60;2.45;;;26.30;45.40;;;;;;5070293;28;20020;-74
2021/11/24 17:10:11;;;;;;;13.63;2.22;;;26.20;45.20;;;;;;5083551;28;20024;-72
2021/11/24 17:12:37;;;;;;;7.28;1.77;;;26.20;45.40;;;;;;5083958;28;20063;-72
2021/11/24 17:15:08;;;;;;;11.07;2.28;;;26.20;44.50;;;;;;5066170;28;20467;-73
2021/11/24 17:17:38;;;;;;;14.93;1.80;;;26.20;44.20;;;;;;5084468;28;20079;-72
2021/11/24 17:20:05;;;;;;;14.80;2.15;;;26.10;43.90;;;;;;5085213;28;20390;-73
2021/11/24 17:22:34;;;;;;;7.38;2.45;;;26.00;43.90;;;;;;5084908;28;20761;-76
2021/11/24 17:25:01;;;;;;;9.18;2.15;;;26.00;43.80;;;;;;5086697;28;20032;-71
2021/11/24 17:27:28;;;;;;;17.75;3.03;;;26.00;44.00;;;;;;5063692;28;20535;-72
2021/11/24 17:29:55;;;;;;;16.63;4.53;;;25.90;43.90;;;;;;5068711;28;20032;-71
2021/11/24 17:32:25;;;;;;;25.67;3.85;;;25.90;43.80;;;;;;5065105;28;20385;-71
2021/11/24 17:34:52;;;;;;;11.88;3.03;;;25.80;43.90;;;;;;5085131;28;20089;-72
2021/11/24 17:37:21;;;;;;;10.98;2.63;;;25.80;43.90;;;;;;5068881;28;20011;-72
2021/11/24 17:39:52;;;;;;;9.20;3.00;;;25.80;43.90;;;;;;5091608;28;20032;-72
2021/11/24 17:42:25;;;;;;;14.50;2.90;;;25.80;44.00;;;;;;5076210;28;20078;-72
2021/11/24 17:45:00;;;;;;;10.90;4.00;;;25.70;43.90;;;;;;5085481;28;20019;-72
2021/11/24 17:47:27;;;;;;;17.17;6.00;;;25.60;44.00;;;;;;5081204;28;20068;-72
2021/11/24 17:50:18;;;;;;;16.83;5.30;;;25.60;44.10;;;;;;5082287;28;20012;-72
2021/11/24 17:52:50;;;;;;;18.80;3.90;;;25.60;44.10;;;;;;5081027;28;20044;-72
2021/11/24 17:55:27;;;;;;;11.38;3.10;;;25.60;44.10;;;;;;5082459;28;20024;-71
2021/11/24 17:58:03;;;;;;;13.65;2.85;;;25.60;44.10;;;;;;5083802;28;20390;-72
2021/11/24 18:00:33;;;;;;;15.77;3.45;;;25.50;44.00;;;;;;5055702;28;20055;-72
2021/11/24 18:03:05;;;;;;;15.43;3.25;;;25.50;44.00;;;;;;5081342;28;20028;-71
2021/11/24 18:05:33;;;;;;;19.90;2.60;;;25.50;44.10;;;;;;5082517;28;20035;-71
2021/11/24 18:08:01;;;;;;;17.50;3.42;;;25.50;44.20;;;;;;5072729;28;20056;-71
2021/11/24 18:10:33;;;;;;;11.93;2.28;;;25.50;44.20;;;;;;5080924;28;20111;-71
2021/11/24 18:13:03;;;;;;;16.00;2.53;;;25.40;44.20;;;;;;5084744;28;20036;-71
2021/11/24 18:15:32;;;;;;;12.55;2.05;;;25.40;44.30;;;;;;5081408;28;20020;-71
2021/11/24 18:17:58;;;;;;;21.08;5.45;;;25.40;44.40;;;;;;5083677;28;20074;-71
2021/11/24 18:20:27;;;;;;;17.63;6.20;;;25.30;44.30;;;;;;5086409;28;20027;-72
2021/11/24 18:22:55;;;;;;;19.27;6.57;;;25.30;44.50;;;;;;5080716;28;20425;-71
2021/11/24 18:25:32;;;;;;;17.00;6.22;;;25.30;44.50;;;;;;5082239;28;20098;-71
2021/11/24 18:28:04;;;;;;;18.40;3.97;;;25.30;44.50;;;;;;5086350;28;20028;-71
2021/11/24 18:30:35;;;;;;;14.68;3.55;;;25.30;44.50;;;;;;5082636;28;20051;-72
2021/11/24 18:33:04;;;;;;;13.60;2.70;;;25.20;44.50;;;;;;5084792;28;20032;-72
2021/11/24 18:35:32;;;;;;;10.82;3.20;;;25.20;44.50;;;;;;5080661;28;20035;-72
2021/11/24 18:38:11;;;;;;;16.83;3.17;;;25.20;44.50;;;;;;5079635;28;20495;-72
2021/11/24 18:40:47;;;;;;;14.63;2.90;;;25.20;44.60;;;;;;5080597;28;20048;-73
2021/11/24 18:43:42;;;;;;;16.90;2.92;;;25.10;44.50;;;;;;5080248;28;20032;-72
2021/11/24 18:46:26;;;;;;;17.27;2.70;;;25.10;44.50;;;;;;5075916;28;20035;-72
2021/11/24 18:49:08;;;;;;;10.75;2.65;;;25.10;44.60;;;;;;5083641;28;20027;-73
2021/11/24 18:51:52;;;;;;;11.07;2.65;;;25.10;44.60;;;;;;5066973;28;20097;-72
2021/11/24 18:54:19;;;;;;;8.63;2.65;;;25.00;44.60;;;;;;5080522;28;20020;-72
2021/11/24 18:56:52;;;;;;;9.00;3.40;;;25.00;44.60;;;;;;5043594;28;20096;-72
2021/11/24 18:59:21;;;;;;;9.88;2.95;;;25.00;44.60;;;;;;5080064;28;20032;-70
2021/11/24 19:01:54;;;;;;;12.05;3.75;;;24.90;44.50;;;;;;5062103;28;20036;-76
2021/11/24 19:04:23;;;;;;;19.20;3.05;;;24.90;44.60;;;;;;5078089;28;20055;-74
2021/11/24 19:06:58;;;;;;;8.73;4.35;;;24.90;44.60;;;;;;5067781;28;20019;-74
2021/11/24 19:09:32;;;;;;;19.88;8.55;;;24.90;44.60;;;;;;5076392;28;20024;-74
2021/11/24 19:12:05;;;;;;;10.18;7.43;;;24.80;44.50;;;;;;5081774;28;20043;-72
2021/11/24 19:14:35;;;;;;;12.85;5.38;;;24.90;44.60;;;;;;5084946;28;20073;-74
2021/11/24 19:17:05;;;;;;;9.95;3.72;;;24.80;44.50;;;;;;5077214;28;20123;-74
2021/11/24 19:19:33;;;;;;;4.70;3.15;;;24.80;44.50;;;;;;5081398;28;20383;-75
2021/11/24 19:22:01;;;;;;;4.78;2.38;;;24.70;44.40;;;;;;5079139;28;20583;-74
2021/11/24 19:24:38;;;;;;;8.05;1.73;;;24.70;44.40;;;;;;5053939;28;20025;-75
2021/11/24 19:27:08;;;;;;;6.63;1.98;;;24.70;44.30;;;;;;5082956;28;20055;-73
2021/11/24 19:29:36;;;;;;;4.07;1.90;;;24.70;44.30;;;;;;5080294;28;20020;-73
2021/11/24 19:32:10;;;;;;;4.07;1.50;;;24.70;44.30;;;;;;5084510;28;20394;-74
2021/11/24 19:34:36;;;;;;;7.32;1.60;;;24.60;44.20;;;;;;5063559;28;20123;-73
2021/11/24 19:37:05;;;;;;;4.97;1.40;;;24.60;44.20;;;;;;5061279;28;20390;-75
2021/11/24 19:39:33;;;;;;;5.85;1.30;;;24.60;44.30;;;;;;5043048;28;20062;-73
2021/11/24 19:42:00;;;;;;;5.03;1.30;;;24.60;44.60;;;;;;5065431;28;20050;-73
2021/11/24 19:44:27;;;;;;;6.10;1.58;;;24.60;44.20;;;;;;5079556;28;20745;-75
2021/11/24 19:47:07;;;;;;;2.00;1.08;;;24.60;44.10;;;;;;5055319;28;20025;-76
2021/11/24 19:49:42;;;;;;;5.72;1.20;;;24.50;44.00;;;;;;5083016;28;20032;-76
2021/11/24 19:52:17;;;;;;;4.65;1.00;;;24.50;43.90;;;;;;5079324;28;20064;-75
2021/11/24 19:54:43;;;;;;;3.78;0.98;;;24.50;43.90;;;;;;5057424;28;20101;-76
2021/11/24 19:57:11;;;;;;;3.28;0.90;;;24.40;43.80;;;;;;5056359;28;20055;-76
2021/11/24 19:59:40;;;;;;;4.47;1.60;;;24.40;43.70;;;;;;5085998;28;20017;-75
2021/11/24 20:02:08;;;;;;;2.22;1.13;;;24.40;43.60;;;;;;5069253;28;20039;-75
2021/11/24 20:04:35;;;;;;;1.98;1.08;;;24.40;43.50;;;;;;5086468;28;20024;-76
2021/11/24 20:07:04;;;;;;;3.03;0.85;;;24.40;43.40;;;;;;5056274;28;20075;-75
2021/11/24 20:09:37;;;;;;;3.58;1.08;;;24.40;43.20;;;;;;5082035;28;20070;-76
2021/11/24 20:12:07;;;;;;;4.10;0.90;;;24.40;43.20;;;;;;5079774;28;20090;-75
2021/11/24 20:14:40;;;;;;;4.25;0.98;;;24.30;43.00;;;;;;5084068;28;20016;-75
2021/11/24 20:17:09;;;;;;;3.15;0.82;;;24.30;42.80;;;;;;5084541;28;20033;-73
2021/11/24 20:19:37;;;;;;;4.78;1.00;;;24.30;42.70;;;;;;5082837;28;20016;-72
2021/11/24 20:22:10;;;;;;;5.43;1.42;;;24.30;42.70;;;;;;5082550;28;20473;-73
2021/11/24 20:24:37;;;;;;;3.40;1.10;;;24.30;42.70;;;;;;5067691;28;20149;-73
2021/11/24 20:27:05;;;;;;;1.67;0.98;;;24.20;42.70;;;;;;5085659;28;20065;-73
2021/11/24 20:29:33;;;;;;;3.45;1.00;;;24.20;42.70;;;;;;5085821;28;20052;-73
2021/11/24 20:32:00;;;;;;;11.10;1.33;;;24.20;42.80;;;;;;5084748;28;20032;-73
2021/11/24 20:34:29;;;;;;;6.28;1.80;;;24.20;42.90;;;;;;5086280;28;20104;-73
2021/11/24 20:36:56;;;;;;;4.57;1.60;;;24.20;43.00;;;;;;5088008;28;20018;-70
2021/11/24 20:39:23;;;;;;;7.55;2.75;;;24.10;43.10;;;;;;5085368;28;20526;-71
2021/11/24 20:41:50;;;;;;;9.05;2.22;;;24.10;43.20;;;;;;5083616;28;20560;-73
2021/11/24 20:44:17;;;;;;;9.38;2.25;;;24.10;43.20;;;;;;5085990;28;20069;-73
2021/11/24 20:46:50;;;;;;;8.43;2.60;;;24.10;43.30;;;;;;5085216;28;20029;-74
2021/11/24 20:49:18;;;;;;;5.60;1.92;;;24.10;43.50;;;;;;5079169;28;20071;-72
2021/11/24 20:51:45;;;;;;;8.35;3.03;;;24.10;43.60;;;;;;5085486;28;20054;-73
2021/11/24 20:54:11;;;;;;;6.13;2.67;;;24.10;43.80;;;;;;5082906;28;20013;-71
2021/11/24 20:56:39;;;;;;;10.70;6.18;;;24.00;43.80;;;;;;5082367;28;20422;-73
2021/11/24 20:59:08;;;;;;;13.30;7.05;;;24.00;44.00;;;;;;5041481;28;20036;-73
2021/11/24 21:01:34;;;;;;;15.35;6.45;;;24.00;44.20;;;;;;5086902;28;20541;-73
2021/11/24 21:04:22;;;;;;;12.38;5.05;;;24.00;44.50;;;;;;5083622;28;20028;-74
2021/11/24 21:06:49;;;;;;;10.55;2.88;;;24.00;44.70;;;;;;5084119;28;20115;-70
2021/11/24 21:09:16;;;;;;;13.88;3.67;;;24.00;45.00;;;;;;5085598;28;20022;-70
2021/11/24 21:11:42;;;;;;;7.88;2.65;;;24.00;45.30;;;;;;5084255;28;20052;-71
2021/11/24 21:14:14;;;;;;;7.47;2.10;;;24.00;45.50;;;;;;5085574;28;20101;-70
2021/11/24 21:16:46;;;;;;;10.65;2.22;;;23.90;45.70;;;;;;5081264;28;20038;-73
2021/11/24 21:19:13;;;;;;;7.75;2.17;;;23.90;46.00;;;;;;5079329;28;20054;-70
2021/11/24 21:21:40;;;;;;;13.07;2.72;;;23.90;46.10;;;;;;5086001;28;20387;-73
2021/11/24 21:24:10;;;;;;;5.25;2.63;;;23.90;46.30;;;;;;5075946;28;20028;-72
2021/11/24 21:26:39;;;;;;;7.28;2.35;;;23.80;46.40;;;;;;5084127;28;20024;-74
2021/11/24 21:29:06;;;;;;;10.77;2.90;;;23.90;46.60;;;;;;5082823;28;20025;-72
2021/11/24 21:31:34;;;;;;;7.18;1.75;;;23.80;46.70;;;;;;5083381;28;20474;-73
2021/11/24 21:34:02;;;;;;;5.20;2.58;;;23.80;46.80;;;;;;5082692;28;20428;-73
2021/11/24 21:36:29;;;;;;;2.30;1.60;;;23.80;47.00;;;;;;5084718;28;20443;-72
2021/11/24 21:38:56;;;;;;;8.73;2.05;;;23.80;47.00;;;;;;5080798;28;20055;-72
2021/11/24 21:41:23;;;;;;;7.20;2.03;;;23.80;47.10;;;;;;5082685;28;20051;-72
2021/11/24 21:43:49;;;;;;;5.32;1.65;;;23.70;47.10;;;;;;5082465;28;20103;-72
2021/11/24 21:46:16;;;;;;;6.30;1.10;;;23.70;47.10;;;;;;5081926;28;20024;-73
2021/11/24 21:48:42;;;;;;;8.43;1.85;;;23.70;47.10;;;;;;5084449;28;20505;-72
2021/11/24 21:51:10;;;;;;;5.80;2.08;;;23.70;47.10;;;;;;5083675;28;20028;-72
2021/11/24 21:53:36;;;;;;;2.55;1.27;;;23.70;47.10;;;;;;5079459;28;20390;-74
2021/11/24 21:56:06;;;;;;;9.43;3.17;;;23.70;47.10;;;;;;5081397;28;20020;-73
2021/11/24 21:58:33;;;;;;;7.18;1.38;;;23.60;47.00;;;;;;5083688;28;20036;-73
2021/11/24 22:01:12;;;;;;;6.07;1.85;;;23.60;47.10;;;;;;5083990;28;20103;-72
2021/11/24 22:03:40;;;;;;;5.38;1.63;;;23.60;47.00;;;;;;5079934;28;20356;-73
2021/11/24 22:06:10;;;;;;;5.80;1.52;;;23.60;46.90;;;;;;5082819;28;20023;-74
2021/11/24 22:11:36;;;;;;;5.13;1.55;;;23.60;46.90;;;;;;5080266;28;20051;-73
2021/11/24 22:14:09;;;;;;;1.60;1.50;;;23.60;46.90;;;;;;5083747;28;20040;-72
2021/11/24 22:16:37;;;;;;;9.20;1.85;;;23.50;46.90;;;;;;5082425;28;20498;-72
2021/11/24 22:19:05;;;;;;;5.00;2.55;;;23.50;46.90;;;;;;5085320;28;20417;-73
2021/11/24 22:21:32;;;;;;;7.45;1.48;;;23.50;47.00;;;;;;5079746;28;20016;-73
2021/11/24 22:24:01;;;;;;;10.23;3.05;;;23.50;47.10;;;;;;5084369;28;20024;-73
2021/11/24 22:26:27;;;;;;;9.02;1.50;;;23.50;47.20;;;;;;5080488;28;20031;-73
2021/11/24 22:28:58;;;;;;;5.50;1.52;;;23.40;47.20;;;;;;5084915;28;20023;-72
2021/11/24 22:31:26;;;;;;;6.45;1.95;;;23.50;47.30;;;;;;5081958;28;20031;-73
2021/11/24 22:33:53;;;;;;;5.78;1.60;;;23.40;47.50;;;;;;5080716;28;20028;-73
2021/11/24 22:36:19;;;;;;;5.18;1.25;;;23.40;47.60;;;;;;5084711;28;20016;-73
2021/11/24 22:38:49;;;;;;;7.15;1.45;;;23.40;47.80;;;;;;5081726;28;20047;-73
2021/11/24 22:41:15;;;;;;;3.33;1.92;;;23.30;48.10;;;;;;5082338;28;20024;-73
2021/11/24 22:43:45;;;;;;;8.50;1.52;;;23.40;48.30;;;;;;5081570;28;20024;-73
2021/11/24 22:46:12;;;;;;;8.90;1.35;;;23.40;48.40;;;;;;5080864;28;20020;-72
2021/11/24 22:48:40;;;;;;;5.10;1.50;;;23.40;48.50;;;;;;5083593;28;20020;-73
2021/11/24 22:51:07;;;;;;;5.57;1.55;;;23.30;48.60;;;;;;5084135;28;20028;-73
2021/11/24 22:53:34;;;;;;;3.70;1.17;;;23.30;48.80;;;;;;5083674;28;20161;-74
2021/11/24 22:56:05;;;;;;;4.75;0.95;;;23.30;49.00;;;;;;5083025;28;20047;-72
2021/11/24 22:58:33;;;;;;;3.83;1.63;;;23.30;49.10;;;;;;5083178;28;20024;-74
2021/11/24 23:00:59;;;;;;;3.20;1.13;;;23.30;49.20;;;;;;5082953;28;20107;-73
2021/11/24 23:03:26;;;;;;;5.43;1.10;;;23.20;49.90;;;;;;5083473;28;20356;-73
2021/11/24 23:05:53;;;;;;;17.88;1.77;;;23.30;49.30;;;;;;5084361;28;20020;-73
2021/11/24 23:08:19;;;;;;;4.45;1.30;;;23.20;49.40;;;;;;5080420;28;20028;-73
2021/11/24 23:10:47;;;;;;;5.45;1.25;;;23.20;49.50;;;;;;5083077;28;20027;-73
2021/11/24 23:13:14;;;;;;;4.57;1.10;;;23.20;49.50;;;;;;5082009;28;20043;-72
2021/11/24 23:15:41;;;;;;;2.63;1.63;;;23.20;49.60;;;;;;5085764;28;20483;-72
2021/11/24 23:18:09;;;;;;;6.45;1.55;;;23.10;49.60;;;;;;5086543;28;20032;-72
2021/11/24 23:20:38;;;;;;;7.57;1.27;;;23.10;49.60;;;;;;5086616;28;20020;-73
2021/11/24 23:23:09;;;;;;;9.23;2.15;;;23.10;49.60;;;;;;5085848;28;20111;-72
2021/11/24 23:25:37;;;;;;;4.05;1.08;;;23.10;49.60;;;;;;5084632;28;20072;-73
2021/11/24 23:28:05;;;;;;;4.95;1.45;;;23.10;49.60;;;;;;5085621;28;20405;-72
2021/11/24 23:30:32;;;;;;;5.53;1.38;;;23.10;49.50;;;;;;5084599;28;20024;-73
2021/11/24 23:46:27;;;;;;;6.10;1.88;;;23.00;49.50;;;;;;5087903;28;20143;-72
2021/11/24 23:48:54;;;;;;;4.35;1.15;;;22.90;49.60;;;;;;5089251;28;20016;-73
2021/11/24 23:51:22;;;;;;;7.47;1.42;;;22.90;49.70;;;;;;5086755;28;20073;-73
2021/11/24 23:53:49;;;;;;;6.15;1.50;;;22.90;49.80;;;;;;5090853;28;20054;-73
2021/11/24 23:56:15;;;;;;;5.57;1.40;;;22.90;49.90;;;;;;5087995;28;20012;-72
2021/11/24 23:58:42;;;;;;;7.20;1.75;;;22.90;49.90;;;;;;5089555;28;20083;-73
